Time;durP1;ratioP1;P1;durP2;ratioP2;P2;SDS_P1;SDS_P2;PMS_P1;PMS_P2;Temp;Humidity;BMP_temperature;BMP_pressure;BME280_temperature;BME280_humidity;BME280_pressure;Samples;Min_cycle;Max_cycle;Signal;HPM_P1;HPM_P2
2021/04/01 00:00:10;;;;;;;4.03;3.53;;;;;;;4.73;77.68;100997.13;5022391;28;20048;-74
2021/04/01 00:02:37;;;;;;;4.87;3.47;;;;;;;4.70;77.69;100987.50;5025206;28;20048;-74
2021/04/01 00:05:05;;;;;;;3.53;3.23;;;;;;;4.67;77.37;100991.84;5007294;28;20701;-74
2021/04/01 00:07:31;;;;;;;3.80;3.33;;;;;;;4.61;78.90;100990.03;5006363;28;20574;-74
2021/04/01 00:09:58;;;;;;;4.63;3.83;;;;;;;4.57;78.94;100984.78;5021489;28;20140;-74
2021/04/01 00:12:25;;;;;;;4.63;3.40;;;;;;;4.54;81.10;100980.41;5028923;28;20124;-75
2021/04/01 00:14:51;;;;;;;4.90;3.80;;;;;;;4.50;81.47;100979.47;5027816;28;20264;-74
2021/04/01 00:17:18;;;;;;;6.07;3.77;;;;;;;4.45;80.67;100986.38;5023503;28;20038;-74
2021/04/01 00:19:44;;;;;;;3.60;3.30;;;;;;;4.39;79.83;100975.03;5026540;28;20037;-74
2021/04/01 00:22:10;;;;;;;4.73;3.57;;;;;;;4.33;79.23;100991.50;5028324;28;20030;-74
2021/04/01 00:24:36;;;;;;;4.97;3.50;;;;;;;4.29;78.80;100988.84;5028117;28;20037;-74
2021/04/01 00:27:03;;;;;;;4.30;3.50;;;;;;;4.25;80.21;100982.72;5009945;28;20060;-74
2021/04/01 00:29:29;;;;;;;3.97;3.40;;;;;;;4.24;82.11;100981.84;5026737;28;20065;-75
2021/04/01 00:31:55;;;;;;;5.33;3.67;;;;;;;4.21;82.20;100987.06;5026167;28;20049;-74
2021/04/01 00:34:22;;;;;;;4.57;3.50;;;;;;;4.16;81.21;100980.00;5025862;28;20051;-74
2021/04/01 00:36:48;;;;;;;4.97;2.97;;;;;;;4.13;80.63;100979.97;5010211;28;20042;-74
2021/04/01 00:39:14;;;;;;;4.40;3.30;;;;;;;4.10;80.93;100972.97;5026712;28;20041;-74
2021/04/01 00:41:40;;;;;;;4.43;3.40;;;;;;;4.07;80.98;100964.22;5026398;28;20668;-74
2021/04/01 00:44:07;;;;;;;3.80;3.23;;;;;;;4.03;80.40;100962.41;5007594;28;20165;-74
2021/04/01 00:46:34;;;;;;;3.63;3.00;;;;;;;3.99;80.21;100953.69;5026524;28;20483;-74
2021/04/01 00:49:01;;;;;;;5.57;3.40;;;;;;;3.97;79.38;100954.53;5028100;28;20045;-74
2021/04/01 00:51:27;;;;;;;5.00;3.53;;;;;;;3.93;79.03;100951.88;5010448;28;20055;-74
2021/04/01 00:53:54;;;;;;;4.37;3.27;;;;;;;3.91;81.07;100960.56;5011640;28;20060;-74
2021/04/01 00:56:23;;;;;;;4.33;3.23;;;;;;;3.86;80.45;100951.78;5027971;28;20049;-74
2021/04/01 00:58:50;;;;;;;4.13;3.30;;;;;;;3.83;81.76;100957.84;5009863;28;20038;-76
2021/04/01 01:03:57;;;;;;;4.57;3.60;;;;;;;3.77;81.83;100955.16;5025542;28;20072;-76
2021/04/01 01:06:24;;;;;;;3.83;2.80;;;;;;;3.75;80.95;100953.41;5008202;28;20091;-76
2021/04/01 01:08:50;;;;;;;6.53;3.70;;;;;;;3.78;82.09;100953.41;5006423;28;20038;-76
2021/04/01 01:11:16;;;;;;;5.50;3.77;;;;;;;3.80;83.25;100943.88;5024858;28;20100;-75
2021/04/01 01:13:42;;;;;;;5.67;4.30;;;;;;;3.82;84.00;100945.66;5007077;28;20042;-76
2021/04/01 01:16:09;;;;;;;4.43;3.53;;;;;;;3.82;84.78;100935.19;5009424;28;20514;-76
2021/04/01 01:18:35;;;;;;;5.77;4.13;;;;;;;3.82;86.92;100945.66;5011641;28;20049;-76
2021/04/01 01:21:02;;;;;;;4.97;4.00;;;;;;;3.79;87.77;100953.47;5011705;28;20045;-76
2021/04/01 01:23:29;;;;;;;5.40;4.17;;;;;;;3.81;89.39;100950.88;5026332;28;20079;-76
2021/04/01 01:25:57;;;;;;;4.87;3.83;;;;;;;3.80;89.67;100957.81;5025676;28;20037;-76
2021/04/01 01:28:23;;;;;;;4.87;3.80;;;;;;;3.81;90.06;100945.63;5009669;28;20514;-76
2021/04/01 01:30:51;;;;;;;5.70;4.33;;;;;;;3.82;86.60;100945.66;5025477;28;20041;-76
2021/04/01 01:33:20;;;;;;;4.57;3.50;;;;;;;3.88;85.38;100940.50;5013704;28;20095;-76
2021/04/01 01:35:47;;;;;;;5.53;4.20;;;;;;;3.97;88.30;100944.06;5027270;28;20037;-76
2021/04/01 01:38:15;;;;;;;5.77;4.20;;;;;;;4.07;90.94;100948.53;5025504;28;20041;-76
2021/04/01 01:40:41;;;;;;;6.27;4.03;;;;;;;4.10;90.65;100940.72;5009368;28;20037;-76
2021/04/01 01:43:10;;;;;;;5.07;4.57;;;;;;;4.15;90.74;100931.19;5025967;28;20091;-76
2021/04/01 01:45:37;;;;;;;7.10;5.03;;;;;;;4.19;91.01;100940.81;5008749;28;20461;-76
2021/04/01 01:48:04;;;;;;;5.93;4.30;;;;;;;4.22;89.43;100935.63;5025354;28;20560;-76
2021/04/01 01:50:32;;;;;;;7.33;4.70;;;;;;;4.20;87.12;100939.94;5008087;28;20104;-76
2021/04/01 01:52:59;;;;;;;5.57;4.00;;;;;;;4.20;84.59;100937.31;5025657;28;20056;-76
2021/04/01 01:55:26;;;;;;;5.17;4.13;;;;;;;4.24;88.51;100934.75;5027044;28;20065;-76
2021/04/01 01:57:52;;;;;;;6.63;5.23;;;;;;;4.23;88.68;100938.25;5010568;28;20457;-76
2021/04/01 02:00:24;;;;;;;5.00;3.70;;;;;;;4.22;86.71;100931.25;5010392;28;20037;-76
2021/04/01 02:02:54;;;;;;;6.47;3.73;;;;;;;4.20;85.52;100921.63;5025631;28;20087;-76
2021/04/01 02:05:21;;;;;;;5.33;3.73;;;;;;;4.17;83.91;100916.38;5009682;28;20172;-76
2021/04/01 02:07:49;;;;;;;5.07;3.40;;;;;;;4.17;84.01;100912.03;5025736;28;20041;-76
2021/04/01 02:10:18;;;;;;;5.97;3.90;;;;;;;4.17;84.08;100909.41;5024615;28;20041;-76
2021/04/01 02:12:44;;;;;;;6.00;3.70;;;;;;;4.15;83.65;100920.72;5027139;28;20033;-75
2021/04/01 02:15:14;;;;;;;4.97;3.90;;;;;;;4.14;84.80;100916.38;5025407;28;20407;-76
2021/04/01 02:17:41;;;;;;;5.03;4.00;;;;;;;4.14;85.27;100913.75;5016763;28;20087;-76
2021/04/01 02:20:08;;;;;;;5.27;3.67;;;;;;;4.14;85.06;100906.78;5008239;28;20037;-76
2021/04/01 02:22:34;;;;;;;5.13;3.77;;;;;;;4.14;84.32;100911.13;4992235;28;20793;-76
2021/04/01 02:25:01;;;;;;;5.63;4.20;;;;;;;4.15;84.51;100918.13;5025032;28;20744;-75
2021/04/01 02:27:27;;;;;;;5.60;3.90;;;;;;;4.18;84.75;100915.50;5005414;28;20052;-76
2021/04/01 02:29:53;;;;;;;6.90;4.43;;;;;;;4.24;87.42;100912.97;5002554;28;20049;-76
2021/04/01 02:32:20;;;;;;;5.33;4.33;;;;;;;4.28;87.47;100914.72;5029558;28;20530;-76
2021/04/01 02:34:47;;;;;;;6.33;4.10;;;;;;;4.30;85.36;100902.56;5029607;28;20115;-76
2021/04/01 02:37:13;;;;;;;4.73;4.10;;;;;;;4.35;87.15;100905.22;5004357;28;20037;-76
2021/04/01 02:39:39;;;;;;;6.40;4.10;;;;;;;4.39;87.21;100902.66;5024372;28;20103;-76
2021/04/01 02:42:06;;;;;;;6.80;4.97;;;;;;;4.44;88.16;100897.44;5009843;28;20456;-76
2021/04/01 02:44:32;;;;;;;6.77;4.37;;;;;;;4.49;88.05;100906.22;5023349;28;20041;-76
2021/04/01 02:46:58;;;;;;;6.23;4.53;;;;;;;4.51;88.04;100894.00;5025752;28;20538;-76
2021/04/01 02:49:24;;;;;;;8.97;4.63;;;;;;;4.53;87.43;100897.50;4992772;28;20037;-76
2021/04/01 02:51:50;;;;;;;6.80;4.53;;;;;;;4.55;85.52;100908.00;5029913;28;20059;-76
2021/04/01 02:54:17;;;;;;;6.57;4.50;;;;;;;4.57;85.62;100908.91;5025229;28;20046;-76
2021/04/01 02:56:43;;;;;;;5.43;4.40;;;;;;;4.59;85.24;100899.31;5024972;28;20068;-76
2021/04/01 02:59:09;;;;;;;5.80;4.40;;;;;;;4.59;86.21;100908.03;5023250;28;20054;-76
2021/04/01 03:01:36;;;;;;;8.10;4.80;;;;;;;4.59;86.38;100900.19;5023246;28;20069;-76
2021/04/01 03:04:08;;;;;;;6.53;5.03;;;;;;;4.60;88.14;100903.66;5024407;28;20131;-76
2021/04/01 03:06:34;;;;;;;6.43;4.47;;;;;;;4.57;87.12;100901.03;5025735;28;20129;-76
2021/04/01 03:09:00;;;;;;;6.23;4.80;;;;;;;4.61;89.68;100898.44;5014281;28;20108;-76
2021/04/01 03:11:26;;;;;;;7.67;4.93;;;;;;;4.66;90.94;100903.72;5026317;28;20037;-76
2021/04/01 03:13:52;;;;;;;7.50;5.77;;;;;;;4.66;91.18;100894.13;5025258;28;20087;-76
2021/04/01 03:16:18;;;;;;;6.50;5.33;;;;;;;4.64;89.01;100900.22;5007868;28;20409;-76
2021/04/01 03:18:44;;;;;;;6.40;4.63;;;;;;;4.64;89.37;100910.69;5002893;28;20127;-76
2021/04/01 03:21:11;;;;;;;8.83;5.87;;;;;;;4.63;90.31;100908.94;5001440;28;20612;-76
2021/04/01 03:23:37;;;;;;;8.10;5.53;;;;;;;4.62;90.74;100900.19;5026691;28;20033;-75
2021/04/01 03:26:03;;;;;;;5.87;4.40;;;;;;;4.61;90.09;100898.44;5025104;28;20498;-76
2021/04/01 03:28:29;;;;;;;6.70;5.30;;;;;;;4.64;91.01;100898.50;5022395;28;20438;-76
2021/04/01 03:31:04;;;;;;;6.40;5.33;;;;;;;4.66;92.26;100899.38;5012671;28;20049;-76
2021/04/01 03:33:32;;;;;;;6.47;5.50;;;;;;;4.69;93.31;100895.88;5023821;28;20483;-76
2021/04/01 03:35:59;;;;;;;6.03;5.07;;;;;;;4.69;92.67;100895.88;4992081;28;20049;-76
2021/04/01 03:38:26;;;;;;;5.73;4.83;;;;;;;4.69;92.46;100885.41;5008152;28;20053;-76
2021/04/01 03:40:54;;;;;;;8.27;4.93;;;;;;;4.71;92.05;100899.41;5022759;28;20063;-76
2021/04/01 03:43:22;;;;;;;8.00;5.27;;;;;;;4.75;93.01;100893.31;5023617;28;20030;-76
2021/04/01 03:45:48;;;;;;;6.97;4.67;;;;;;;4.79;93.41;100892.47;5025653;28;20164;-76
2021/04/01 03:48:15;;;;;;;5.97;4.73;;;;;;;4.81;93.36;100888.13;5027072;28;20132;-76
2021/04/01 03:50:41;;;;;;;6.33;4.63;;;;;;;4.85;93.02;100891.63;5028950;28;20087;-76
2021/04/01 03:53:07;;;;;;;6.73;4.57;;;;;;;4.89;92.18;100888.19;5012478;28;20084;-76
2021/04/01 03:55:43;;;;;;;6.63;4.50;;;;;;;4.92;91.38;100885.56;5011797;28;20037;-76
2021/04/01 04:01:28;;;;;;;5.93;4.80;;;;;;;5.00;92.79;100882.13;5030197;28;20033;-76
2021/04/01 04:04:01;;;;;;;7.37;4.90;;;;;;;5.06;93.13;100886.53;5028864;28;20050;-76
2021/04/01 04:11:49;;;;;;;5.47;4.37;;;;;;;5.03;90.29;100876.91;5030897;28;20037;-76
2021/04/01 04:14:30;;;;;;;7.27;5.47;;;;;;;5.05;90.64;100883.06;5011290;28;20038;-76
2021/04/01 04:16:56;;;;;;;9.00;5.67;;;;;;;5.08;91.99;100872.59;5010665;28;20048;-76
2021/04/01 04:19:22;;;;;;;7.27;5.33;;;;;;;5.11;92.38;100882.19;5027551;28;20045;-75
2021/04/01 04:21:49;;;;;;;7.37;5.70;;;;;;;5.13;92.78;100871.72;5014759;28;20041;-75
2021/04/01 04:24:15;;;;;;;6.47;5.47;;;;;;;5.14;91.75;100876.13;5027227;28;20041;-76
2021/04/01 04:26:42;;;;;;;6.20;4.90;;;;;;;5.14;91.15;100865.63;5010821;28;20041;-76
2021/04/01 04:29:08;;;;;;;6.60;4.97;;;;;;;5.14;91.88;100879.59;5011766;28;20523;-76
2021/04/01 04:31:34;;;;;;;6.23;4.70;;;;;;;5.14;89.83;100873.50;5027732;28;20379;-76
2021/04/01 04:34:00;;;;;;;6.37;4.53;;;;;;;5.13;88.11;100875.25;5028330;28;20045;-76
2021/04/01 04:36:27;;;;;;;5.60;4.37;;;;;;;5.17;87.85;100876.13;5010771;28;20037;-76
2021/04/01 04:38:53;;;;;;;5.40;4.63;;;;;;;5.18;87.84;100870.88;5026022;28;20115;-76
2021/04/01 04:41:19;;;;;;;6.17;5.30;;;;;;;5.21;88.81;100872.63;5007441;28;20675;-76
2021/04/01 04:43:45;;;;;;;7.27;4.83;;;;;;;5.24;89.43;100870.03;5051630;23;20134;-88
2021/04/01 04:46:12;;;;;;;5.87;4.93;;;;;;;5.27;89.54;100870.06;4991756;28;20386;-88
2021/04/01 04:48:38;;;;;;;6.67;5.33;;;;;;;5.30;90.05;100875.31;4995245;28;20124;-88
2021/04/01 04:51:05;;;;;;;8.27;5.33;;;;;;;5.34;89.92;100870.09;4992003;28;20417;-88
2021/04/01 04:53:32;;;;;;;9.17;5.43;;;;;;;5.39;89.64;100866.63;5011804;28;20037;-88
2021/04/01 04:58:52;;;;;;;6.67;5.00;;;;;;;5.46;90.14;100868.38;5009077;28;20064;-88
2021/04/01 05:06:55;;;;;;;8.03;5.50;;;;;;;5.58;92.07;100882.41;5016881;28;20037;-89
2021/04/01 05:09:22;;;;;;;8.43;5.20;;;;;;;5.64;92.35;100892.06;5001532;28;20045;-89
2021/04/01 05:11:48;;;;;;;7.13;5.10;;;;;;;5.71;91.97;100892.91;5011038;28;20079;-88
2021/04/01 05:14:15;;;;;;;10.23;6.37;;;;;;;5.76;91.42;100878.97;4995742;28;20056;-88
2021/04/01 05:16:41;;;;;;;7.03;5.47;;;;;;;5.80;91.69;100877.22;5012674;28;20045;-88
2021/04/01 05:19:10;;;;;;;7.10;5.77;;;;;;;5.85;91.77;100888.59;4995462;28;20056;-89
2021/04/01 05:24:11;;;;;;;8.80;6.10;;;;;;;5.93;91.34;100884.28;5011423;28;20041;-89
2021/04/01 05:29:08;;;;;;;7.90;5.77;;;;;;;6.07;89.71;100893.06;5009076;28;20221;-88
2021/04/01 05:31:37;;;;;;;7.43;5.57;;;;;;;6.13;90.17;100893.03;5007409;28;20041;-88
2021/04/01 05:34:05;;;;;;;7.07;5.33;;;;;;;6.19;91.04;100900.94;5006946;28;20060;-88
2021/04/01 05:36:35;;;;;;;8.73;5.00;;;;;;;6.27;91.07;100900.06;4993295;28;20120;-88
2021/04/01 05:39:02;;;;;;;7.13;4.93;;;;;;;6.36;90.50;100900.06;4990592;28;20053;-88
2021/04/01 05:41:30;;;;;;;9.37;5.90;;;;;;;6.46;90.14;100904.44;4993608;28;20038;-88
2021/04/01 05:44:08;;;;;;;7.90;5.97;;;;;;;6.61;90.57;100911.44;4987902;28;20048;-88
2021/04/01 05:49:23;;;;;;;10.07;6.93;;;;;;;6.98;88.76;100905.28;5010582;28;20103;-88
2021/04/01 06:05:34;;;;;;;8.40;5.57;;;;;;;7.71;87.03;100906.78;5014319;28;20041;-89
2021/04/01 06:08:10;;;;;;;6.43;5.23;;;;;;;7.80;86.20;100897.97;5012713;28;20498;-90
2021/04/01 06:10:39;;;;;;;6.60;5.00;;;;;;;7.86;85.10;100901.44;5011498;28;20046;-86
2021/04/01 06:13:35;;;;;;;6.93;6.20;;;;;;;7.94;85.61;100901.41;5015161;28;20585;-91
2021/04/01 06:16:10;;;;;;;8.50;5.40;;;;;;;7.99;84.99;100902.28;5000421;28;20402;-89
2021/04/01 06:18:54;;;;;;;9.60;6.50;;;;;;;8.08;85.03;100901.34;5000670;28;20042;-87
2021/04/01 06:21:25;;;;;;;7.83;6.30;;;;;;;8.22;85.01;100912.63;4994088;28;20137;-89
2021/04/01 06:24:06;;;;;;;9.23;6.70;;;;;;;8.38;84.74;100901.13;5005478;28;20039;-88
2021/04/01 06:26:33;;;;;;;10.20;6.63;;;;;;;8.63;83.84;100906.19;5007395;28;20042;-88
2021/04/01 06:29:02;;;;;;;8.47;7.13;;;;;;;8.94;82.78;100907.69;5028163;28;20498;-88
2021/04/01 06:31:38;;;;;;;8.57;6.87;;;;;;;9.46;81.87;100904.47;4995510;28;20056;-89
2021/04/01 06:34:07;;;;;;;8.50;6.60;;;;;;;9.78;79.13;100892.66;5010572;28;20041;-89
2021/04/01 06:36:34;;;;;;;13.20;7.40;;;;;;;10.01;76.81;100909.03;5010728;28;20471;-89
2021/04/01 06:39:00;;;;;;;15.33;8.30;;;;;;;9.87;72.48;100924.19;4993302;28;20053;-89
2021/04/01 06:41:29;;;;;;;10.40;7.40;;;;;;;9.85;73.00;100928.63;4995649;28;20042;-89
2021/04/01 06:44:06;;;;;;;10.50;7.07;;;;;;;9.89;74.00;100927.66;5010939;28;20145;-88
2021/04/01 06:46:47;;;;;;;9.00;6.60;;;;;;;9.99;74.71;100937.19;5009492;28;20060;-89
2021/04/01 06:54:46;;;;;;;8.47;6.10;;;;;;;10.26;74.88;100951.84;5007137;28;20513;-89
2021/04/01 07:03:19;;;;;;;6.50;5.32;;;;;;;10.88;74.22;100960.53;5009297;28;20039;-88
2021/04/01 07:06:04;;;;;;;8.02;5.95;;;;;;;11.08;74.37;100959.31;5006738;28;20046;-88
2021/04/01 07:11:08;;;;;;;9.50;6.10;;;;;;;11.41;72.80;100963.09;5010027;28;20037;-89
2021/04/01 07:13:46;;;;;;;12.13;8.00;;;;;;;11.40;70.36;100961.38;5004779;28;20523;-88
2021/04/01 07:16:17;;;;;;;11.27;8.45;;;;;;;11.41;69.56;100952.53;4995215;28;20077;-88
2021/04/01 07:18:59;;;;;;;9.93;8.38;;;;;;;11.57;68.33;100953.97;4990580;28;20065;-89
2021/04/01 07:30:48;;;;;;;12.95;9.27;;;;;;;12.19;67.17;100954.47;5010259;28;20037;-90
2021/04/01 07:32:54;;;;;;;13.57;8.32;;;;;;;13.01;63.73;100929.50;5007189;28;20465;-90
2021/04/01 07:46:38;;;;;;;12.18;8.23;;;;;;;13.53;61.61;100921.88;5011423;28;20045;-91
2021/04/01 07:49:20;;;;;;;12.65;8.05;;;;;;;13.51;61.66;100921.06;5008925;28;20037;-90
2021/04/01 07:52:05;;;;;;;12.45;7.90;;;;;;;13.35;62.50;100905.59;4993051;28;20049;-90
2021/04/01 07:54:39;;;;;;;9.90;6.88;;;;;;;13.11;63.95;100923.91;4987416;28;20038;-90
2021/04/01 08:05:36;;;;;;;13.40;9.55;;;;;;;12.43;67.47;100893.84;5022530;28;20053;-90
2021/04/01 08:08:08;;;;;;;10.48;7.57;;;;;;;12.48;66.62;100890.19;5010042;28;20053;-91
2021/04/01 08:10:46;;;;;;;10.40;7.57;;;;;;;12.64;67.53;100888.03;5009027;28;20074;-91
2021/04/01 08:13:16;;;;;;;12.27;8.38;;;;;;;12.87;69.50;100888.31;5008001;28;20224;-91
2021/04/01 08:15:49;;;;;;;13.85;9.07;;;;;;;12.99;67.65;100863.25;4993877;28;20050;-90
2021/04/01 08:18:28;;;;;;;14.82;9.15;;;;;;;13.09;68.01;100861.19;5009148;28;20052;-90
2021/04/01 08:20:58;;;;;;;12.10;8.40;;;;;;;13.24;69.16;100851.06;4992705;28;20176;-90
2021/04/01 08:23:51;;;;;;;10.38;7.22;;;;;;;13.39;67.93;100852.41;5011981;28;20478;-90
2021/04/01 08:26:49;;;;;;;9.57;6.82;;;;;;;13.72;65.30;100862.97;4999284;28;20079;-91
2021/04/01 08:30:41;;;;;;;12.63;6.32;;;;;;;14.17;65.99;100870.41;5012216;28;20046;-90
2021/04/01 08:35:56;;;;;;;12.60;8.95;;;;;;;14.75;62.44;100861.41;5033444;28;20095;-90
2021/04/01 08:38:43;;;;;;;14.18;9.65;;;;;;;14.73;61.33;100851.75;5003309;28;20037;-90
2021/04/01 08:41:38;;;;;;;14.27;9.27;;;;;;;14.89;62.15;100874.25;4999856;28;20041;-90
2021/04/01 08:44:46;;;;;;;14.18;8.88;;;;;;;15.18;59.30;100874.06;5019571;28;20276;-91
2021/04/01 08:48:00;;;;;;;13.95;9.15;;;;;;;15.55;59.95;100880.69;5025408;28;20095;-91
2021/04/01 08:50:36;;;;;;;12.50;8.40;;;;;;;15.82;58.07;100883.28;5027775;28;20033;-90
2021/04/01 08:53:31;;;;;;;15.10;9.75;;;;;;;15.83;57.61;100879.69;4994947;28;20513;-90
2021/04/01 08:56:28;;;;;;;18.25;11.35;;;;;;;15.62;55.76;100868.91;4998472;28;20048;-90
2021/04/01 08:59:03;;;;;;;21.45;12.07;;;;;;;15.52;56.27;100874.63;5011356;28;20045;-90
2021/04/01 09:01:38;;;;;;;14.15;10.23;;;;;;;15.35;57.90;100867.25;5012844;28;20540;-90
2021/04/01 09:04:05;;;;;;;13.88;9.73;;;;;;;15.19;57.79;100870.47;4992744;28;20056;-90
2021/04/01 09:06:35;;;;;;;11.65;8.60;;;;;;;15.12;58.63;100874.28;5010295;28;20067;-90
2021/04/01 09:09:12;;;;;;;12.52;9.18;;;;;;;15.09;59.69;100869.06;4996436;28;20042;-90
2021/04/01 09:11:46;;;;;;;12.60;8.20;;;;;;;15.09;60.39;100877.06;4995249;28;20517;-90
2021/04/01 09:14:28;;;;;;;14.50;8.82;;;;;;;15.07;60.52;100875.38;4996600;28;20140;-91
2021/04/01 09:17:07;;;;;;;12.68;8.30;;;;;;;15.11;60.58;100875.19;4993961;28;20398;-90
2021/04/01 09:19:35;;;;;;;11.63;8.65;;;;;;;15.12;60.36;100879.59;5011898;28;20041;-90
2021/04/01 09:22:02;;;;;;;14.10;8.57;;;;;;;15.04;60.38;100875.47;5010706;28;20041;-90
2021/04/01 09:24:33;;;;;;;13.38;9.73;;;;;;;14.92;59.39;100867.00;4996373;28;20056;-90
2021/04/01 09:27:00;;;;;;;19.58;13.18;;;;;;;14.76;58.51;100878.22;5010755;28;20095;-90
2021/04/01 09:29:38;;;;;;;19.25;11.93;;;;;;;14.63;57.76;100886.63;4994957;28;20516;-90
2021/04/01 09:32:05;;;;;;;16.83;10.43;;;;;;;14.56;58.66;100889.56;4994574;28;20053;-91
2021/04/01 09:34:32;;;;;;;13.30;9.70;;;;;;;14.50;59.23;100890.59;5010044;28;20072;-90
2021/04/01 09:37:11;;;;;;;15.23;9.52;;;;;;;14.53;59.38;100895.81;5012127;28;20052;-90
2021/04/01 09:39:38;;;;;;;19.73;11.70;;;;;;;14.46;59.01;100888.09;4993780;28;20286;-91
2021/04/01 09:42:15;;;;;;;17.13;11.30;;;;;;;14.50;59.22;100887.09;4996493;28;20052;-90
2021/04/01 09:44:56;;;;;;;22.20;13.45;;;;;;;14.48;58.54;100875.63;4991904;28;20045;-89
2021/04/01 09:47:35;;;;;;;25.27;14.95;;;;;;;14.34;57.52;100876.03;5021433;28;20384;-90
2021/04/01 09:50:11;;;;;;;25.63;14.07;;;;;;;14.35;57.85;100875.13;5012046;28;20052;-89
2021/04/01 09:52:43;;;;;;;19.00;11.63;;;;;;;14.46;58.47;100883.66;4997470;28;20065;-90
2021/04/01 09:55:14;;;;;;;19.23;12.20;;;;;;;14.64;58.11;100883.06;4995207;28;20037;-90
2021/04/01 09:57:51;;;;;;;15.48;11.25;;;;;;;14.95;58.56;100883.78;5005579;28;20049;-91
2021/04/01 10:03:21;;;;;;;25.75;16.75;;;;;;;15.77;54.54;100878.97;5017958;28;20465;-91
2021/04/01 10:05:57;;;;;;;19.88;13.27;;;;;;;16.24;53.83;100883.38;4999732;28;20124;-91
2021/04/01 10:08:28;;;;;;;26.38;16.05;;;;;;;16.20;52.47;100879.97;5001702;28;20141;-92
2021/04/01 10:11:01;;;;;;;24.77;14.70;;;;;;;16.29;51.31;100871.59;5030304;28;20049;-90
2021/04/01 10:13:29;;;;;;;22.42;15.07;;;;;;;16.31;51.71;100866.19;4998048;28;20044;-90
2021/04/01 10:15:58;;;;;;;25.52;16.52;;;;;;;16.07;52.58;100864.53;4995970;28;20061;-90
2021/04/01 10:18:36;;;;;;;22.90;15.15;;;;;;;15.91;52.22;100859.81;4994053;28;20050;-91
2021/04/01 10:21:11;;;;;;;24.85;13.60;;;;;;;15.79;52.51;100846.94;4998129;28;20083;-92
2021/04/01 10:23:43;;;;;;;;;;;;;;;15.35;53.45;100824.66;4998909;28;20124;-91
2021/04/01 10:26:11;;;;;;;25.05;15.38;;;;;;;15.39;54.10;100803.19;5018862;28;19920;-91
2021/04/01 10:28:44;;;;;;;27.65;15.38;;;;;;;15.45;53.44;100802.94;5018254;28;20045;-91
2021/04/01 10:31:18;;;;;;;24.95;16.40;;;;;;;15.46;53.70;100803.81;4999675;28;20084;-91
2021/04/01 10:33:51;;;;;;;27.17;15.63;;;;;;;15.49;54.00;100803.72;4994599;28;20048;-91
2021/04/01 10:36:26;;;;;;;23.80;15.37;;;;;;;15.61;53.72;100803.25;5007510;28;20418;-91
2021/04/01 10:38:56;;;;;;;26.80;15.05;;;;;;;15.74;52.88;100809.00;4997442;28;20041;-92
2021/04/01 10:41:25;;;;;;;27.40;16.90;;;;;;;15.66;53.34;100801.28;5013961;28;20056;-90
2021/04/01 10:43:59;;;;;;;28.60;17.25;;;;;;;15.91;52.77;100797.66;5012758;22;20038;-75
2021/04/01 10:46:28;;;;;;;27.75;17.20;;;;;;;15.89;52.65;100805.72;4996134;28;20045;-76
2021/04/01 10:49:00;;;;;;;28.65;16.52;;;;;;;15.89;52.79;100819.03;5015063;28;20580;-76
2021/04/01 10:51:26;;;;;;;28.30;16.20;;;;;;;15.88;52.31;100819.06;5017552;28;20053;-76
2021/04/01 10:54:10;;;;;;;30.65;16.38;;;;;;;15.92;53.18;100807.38;5001111;28;20149;-77
2021/04/01 10:56:47;;;;;;;23.48;14.70;;;;;;;15.96;53.10;100803.66;5017865;28;20136;-77
2021/04/01 10:59:14;;;;;;;26.17;15.43;;;;;;;16.04;52.63;100806.88;5016526;28;20071;-76
2021/04/01 11:01:44;;;;;;;23.98;15.20;;;;;;;16.10;52.45;100803.09;5016572;28;20528;-76
2021/04/01 11:04:12;;;;;;;25.90;15.80;;;;;;;16.26;52.43;100812.22;5022051;28;20179;-76
2021/04/01 11:06:39;;;;;;;27.27;16.30;;;;;;;16.54;50.83;100812.75;5003555;28;20041;-76
2021/04/01 11:09:09;;;;;;;28.48;17.02;;;;;;;16.63;51.15;100808.84;5020514;28;20041;-76
2021/04/01 11:11:58;;;;;;;28.77;15.50;;;;;;;16.76;51.54;100803.88;5001183;28;20071;-76
2021/04/01 11:14:27;;;;;;;27.63;15.95;;;;;;;16.86;50.51;100822.09;5004619;28;20033;-76
2021/04/01 11:16:54;;;;;;;21.85;14.50;;;;;;;16.68;51.46;100841.53;5000031;28;20048;-76
2021/04/01 11:19:20;;;;;;;25.90;15.70;;;;;;;16.57;51.60;100860.66;5015498;28;20046;-75
2021/04/01 11:21:48;;;;;;;20.55;13.23;;;;;;;16.66;52.81;100879.88;5021350;28;20041;-76
2021/04/01 11:24:14;;;;;;;27.40;17.27;;;;;;;16.58;51.34;100885.53;5022466;28;20041;-76
2021/04/01 11:26:40;;;;;;;31.15;19.45;;;;;;;16.77;50.25;100878.53;5018356;28;20041;-76
2021/04/01 11:29:13;;;;;;;31.90;18.60;;;;;;;17.43;49.61;100892.53;5016752;28;20056;-75
2021/04/01 11:31:40;;;;;;;30.67;19.15;;;;;;;17.79;47.14;100886.44;5003684;28;20057;-76
2021/04/01 11:34:06;;;;;;;30.45;18.40;;;;;;;18.52;46.86;100887.38;5019914;28;20037;-76
2021/04/01 11:36:42;;;;;;;31.63;20.55;;;;;;;18.41;46.00;100885.22;5014265;28;20041;-76
2021/04/01 11:39:34;;;;;;;33.55;21.13;;;;;;;18.55;45.01;100889.91;5035810;28;20070;-76
2021/04/01 11:42:01;;;;;;;31.48;18.75;;;;;;;18.31;46.01;100885.75;5030825;28;20041;-76
2021/04/01 11:44:27;;;;;;;29.13;18.33;;;;;;;18.23;46.97;100895.00;5006831;28;20042;-76
2021/04/01 11:46:54;;;;;;;32.38;18.45;;;;;;;17.25;48.44;100900.50;4998679;28;20072;-76
2021/04/01 11:49:20;;;;;;;31.15;20.30;;;;;;;16.82;48.59;100886.34;5014482;28;20469;-76
2021/04/01 11:51:47;;;;;;;33.03;21.15;;;;;;;16.47;49.50;100895.75;5020746;28;20829;-76
2021/04/01 11:54:23;;;;;;;33.60;21.80;;;;;;;15.96;51.69;100881.78;5023820;28;20685;-74
2021/04/01 11:56:49;;;;;;;28.17;18.55;;;;;;;15.84;54.50;100892.06;5022271;28;20052;-75
2021/04/01 11:59:20;;;;;;;24.20;15.73;;;;;;;15.65;56.59;100890.13;5018499;28;20045;-75
2021/04/01 12:02:00;;;;;;;27.05;17.83;;;;;;;15.53;60.73;100887.88;5018831;28;20044;-74
2021/04/01 12:04:31;;;;;;;30.33;19.65;;;;;;;15.43;66.05;100903.31;5016334;28;20074;-74
2021/04/01 12:06:58;;;;;;;30.55;18.67;;;;;;;15.44;66.35;100904.19;5016602;28;20042;-74
2021/04/01 12:09:25;;;;;;;27.60;18.27;;;;;;;15.42;65.98;100901.59;5017384;28;20044;-75
2021/04/01 12:11:51;;;;;;;25.27;16.48;;;;;;;15.34;66.40;100893.00;5021068;28;20682;-75
2021/04/01 12:14:18;;;;;;;27.73;18.58;;;;;;;15.33;67.76;100895.72;5024857;28;20072;-75
2021/04/01 12:16:44;;;;;;;31.48;19.00;;;;;;;15.44;67.70;100902.38;5021615;28;20410;-74
2021/04/01 12:19:11;;;;;;;33.83;22.02;;;;;;;15.28;67.65;100900.34;5024762;28;20068;-74
2021/04/01 12:21:38;;;;;;;28.60;19.17;;;;;;;15.65;65.35;100899.91;5017138;28;20033;-74
2021/04/01 12:24:06;;;;;;;27.45;17.85;;;;;;;15.88;63.85;100899.88;5022865;28;20056;-75
2021/04/01 12:26:46;;;;;;;26.75;17.45;;;;;;;16.08;65.33;100899.13;5006465;28;20080;-76
2021/04/01 12:29:12;;;;;;;32.33;19.90;;;;;;;16.19;67.42;100904.03;5038258;28;22015;-74
2021/04/01 12:31:41;;;;;;;27.98;18.23;;;;;;;16.39;66.96;100889.88;5003619;28;20095;-74
2021/04/01 12:34:13;;;;;;;25.23;18.45;;;;;;;16.33;65.35;100897.22;5020860;28;20589;-75
2021/04/01 12:36:41;;;;;;;31.95;20.95;;;;;;;16.30;63.60;100889.31;5015595;28;20057;-74
2021/04/01 12:39:08;;;;;;;35.97;22.35;;;;;;;16.26;61.84;100887.72;5014995;28;20149;-75
2021/04/01 12:41:36;;;;;;;37.85;23.83;;;;;;;16.29;61.05;100890.25;5022794;28;20730;-75
2021/04/01 12:44:03;;;;;;;46.33;25.92;;;;;;;16.82;61.59;100889.88;5016839;28;20042;-74
2021/04/01 12:46:43;;;;;;;43.22;25.00;;;;;;;17.36;58.56;100883.03;4991532;28;20510;-75
2021/04/01 12:49:19;;;;;;;34.47;20.77;;;;;;;17.96;55.89;100881.16;5038834;28;20041;-75
2021/04/01 12:51:47;;;;;;;39.47;25.85;;;;;;;18.74;54.79;100887.19;5017793;28;20171;-75
2021/04/01 12:54:20;;;;;;;39.80;24.48;;;;;;;18.29;49.00;100880.50;5023951;28;20038;-75
2021/04/01 12:56:55;;;;;;;45.88;28.80;;;;;;;18.25;51.05;100885.13;5021455;28;20049;-74
2021/04/01 12:59:40;;;;;;;44.20;27.67;;;;;;;18.62;49.88;100882.44;5024978;28;20100;-75
2021/04/01 13:02:26;;;;;;;;;;;;;;;18.74;48.77;100880.03;5024063;28;20673;-75
2021/04/01 13:04:56;;;;;;;42.83;26.73;;;;;;;18.92;49.97;100896.09;5020441;28;19924;-75
2021/04/01 13:07:30;;;;;;;44.88;28.33;;;;;;;18.94;48.75;100897.78;5020039;28;20510;-75
2021/04/01 13:12:41;;;;;;;44.85;28.38;;;;;;;18.53;48.29;100908.72;5022042;28;20592;-75